createdAt,value
2023-04-13T00:04:40.058Z,2.40
2023-04-13T00:14:44.206Z,3.73
2023-04-13T00:24:50.159Z,3.03
2023-04-13T00:34:53.426Z,4.27
2023-04-13T00:44:58.368Z,2.50
2023-04-13T00:55:02.862Z,2.00
2023-04-13T01:05:07.682Z,1.40
2023-04-13T01:15:14.925Z,4.30
2023-04-13T01:25:41.974Z,3.17
2023-04-13T01:35:47.239Z,3.43
2023-04-13T01:45:59.539Z,5.23
2023-04-13T01:56:07.188Z,3.80
2023-04-13T02:06:11.385Z,4.53
2023-04-13T02:16:19.686Z,2.80
2023-04-13T02:26:22.773Z,2.60
2023-04-13T02:36:27.866Z,2.43
2023-04-13T02:46:39.291Z,2.80
2023-04-13T02:56:55.983Z,1.80
2023-04-13T03:06:59.442Z,4.53
2023-04-13T03:17:08.447Z,4.13
2023-04-13T03:27:16.469Z,4.80
2023-04-13T03:37:30.320Z,3.17
2023-04-13T03:47:41.660Z,4.30
2023-04-13T03:57:47.774Z,5.53
2023-04-13T04:07:55.024Z,2.60
2023-04-13T04:18:00.469Z,3.67
2023-04-13T04:28:04.570Z,4.90
2023-04-13T04:38:11.480Z,0.83
2023-04-13T04:48:14.845Z,2.30
2023-04-13T04:58:23.044Z,1.63
2023-04-13T05:08:30.733Z,5.35
2023-04-13T05:18:45.109Z,2.67
2023-04-13T05:28:54.407Z,0.93
2023-04-13T05:39:00.393Z,0.73
2023-04-13T05:49:05.134Z,1.63
2023-04-13T05:59:11.482Z,1.47
2023-04-13T06:09:15.753Z,1.43
2023-04-13T06:19:22.291Z,1.77
2023-04-13T06:29:25.680Z,3.17
2023-04-13T06:39:38.911Z,0.67
2023-04-13T06:49:44.481Z,3.17
2023-04-13T06:59:49.460Z,1.47
2023-04-13T07:09:52.873Z,1.90
2023-04-13T07:19:58.401Z,2.87
2023-04-13T07:30:02.061Z,1.80
2023-04-13T07:40:14.447Z,0.80
2023-04-13T07:50:21.539Z,3.70
2023-04-13T08:00:27.492Z,3.43
2023-04-13T08:10:34.996Z,2.23
2023-04-13T08:20:42.636Z,4.33
2023-04-13T08:30:46.320Z,2.40
2023-04-13T08:40:51.480Z,7.57
2023-04-13T08:51:01.718Z,5.17
2023-04-13T09:01:13.632Z,5.80
2023-04-13T09:11:17.659Z,4.90
2023-04-13T09:21:23.798Z,7.60
2023-04-13T09:31:29.447Z,8.60
2023-04-13T09:41:36.266Z,5.20
2023-04-13T09:51:41.405Z,5.27
2023-04-13T10:01:48.101Z,7.30
2023-04-13T10:11:52.566Z,7.77
2023-04-13T10:21:58.962Z,7.80
2023-04-13T10:32:05.369Z,7.43
2023-04-13T10:42:12.802Z,9.33
2023-04-13T10:52:16.935Z,5.60
2023-04-13T11:02:21.583Z,8.80
2023-04-13T11:12:24.626Z,9.40
2023-04-13T11:22:36.607Z,8.50
2023-04-13T11:32:43.481Z,6.53
2023-04-13T11:42:50.459Z,8.93
2023-04-13T11:52:56.888Z,8.43
2023-04-13T12:03:03.386Z,12.50
2023-04-13T12:35:27.569Z,9.47
2023-04-13T12:45:33.397Z,8.47
2023-04-13T12:55:38.621Z,9.10
2023-04-13T13:05:42.390Z,4.40
2023-04-13T13:15:47.016Z,8.90
2023-04-13T13:26:04.441Z,11.67
2023-04-13T13:36:15.507Z,6.33
2023-04-13T13:46:19.564Z,8.03
2023-04-13T13:56:25.809Z,8.00
2023-04-13T14:06:28.902Z,7.20
2023-04-13T14:16:33.715Z,8.53
2023-04-13T14:26:38.433Z,7.80
2023-04-13T14:36:45.646Z,8.10
2023-04-13T14:46:49.485Z,4.05
2023-04-13T14:56:55.348Z,7.23
2023-04-13T15:06:59.328Z,6.53
2023-04-13T15:17:04.661Z,11.50
2023-04-13T15:27:07.810Z,8.40
2023-04-13T15:37:12.542Z,5.57
2023-04-13T15:47:16.126Z,7.03
2023-04-13T15:57:21.048Z,9.03
2023-04-13T16:07:24.138Z,5.63
2023-04-13T16:17:32.489Z,6.47
2023-04-13T16:27:36.241Z,5.45
2023-04-13T16:37:42.455Z,8.50
2023-04-13T16:47:45.613Z,9.83
2023-04-13T16:57:50.077Z,9.33
2023-04-13T17:07:53.331Z,5.80
2023-04-13T17:17:57.829Z,11.17
2023-04-13T17:28:01.662Z,6.17
2023-04-13T17:38:06.330Z,5.60
2023-04-13T17:48:09.496Z,18.33
2023-04-13T17:58:14.706Z,16.20
2023-04-13T18:08:18.002Z,10.80
2023-04-13T18:18:24.498Z,10.27
2023-04-13T18:28:27.479Z,5.60
2023-04-13T18:38:34.033Z,5.47
2023-04-13T18:48:37.146Z,10.60
2023-04-13T18:58:41.815Z,9.67
2023-04-13T19:08:44.798Z,5.87
2023-04-13T19:18:49.710Z,5.33
2023-04-13T19:28:54.030Z,5.67
2023-04-13T19:39:04.320Z,3.80
2023-04-13T19:49:08.079Z,6.57
2023-04-13T19:59:13.093Z,11.30
2023-04-13T20:09:16.262Z,3.50
2023-04-13T20:19:21.233Z,4.27
2023-04-13T20:29:27.326Z,4.47
2023-04-13T20:39:32.000Z,3.20
2023-04-13T20:49:35.336Z,8.83
2023-04-13T20:59:40.389Z,5.43
2023-04-13T21:09:44.612Z,2.87
2023-04-13T21:19:49.066Z,2.73
2023-04-13T21:29:52.001Z,4.97
2023-04-13T21:39:58.049Z,5.83
2023-04-13T21:50:03.634Z,6.23
2023-04-13T22:00:09.703Z,5.67
2023-04-13T22:10:15.435Z,10.83
2023-04-13T22:20:20.369Z,4.90
2023-04-13T22:30:24.134Z,6.37
2023-04-13T22:40:28.744Z,5.07
2023-04-13T22:50:32.427Z,7.53
2023-04-13T23:00:36.904Z,8.23
2023-04-13T23:10:41.463Z,8.93
2023-04-13T23:20:46.178Z,4.50
2023-04-13T23:30:49.129Z,5.07
2023-04-13T23:40:54.612Z,8.67
2023-04-13T23:50:58.419Z,12.77
